Time;durP1;ratioP1;P1;durP2;ratioP2;P2;SDS_P1;SDS_P2;PMS_P1;PMS_P2;Temp;Humidity;BMP_temperature;BMP_pressure;BME280_temperature;BME280_humidity;BME280_pressure;Samples;Min_cycle;Max_cycle;Signal;HPM_P1;HPM_P2
2022/12/18 00:00:07;;;;;;;0.00;0.00;;;3.30;99.90;;;;;;5053258;28;20025;-76
2022/12/18 00:02:35;;;;;;;0.05;0.05;;;3.30;99.90;;;;;;5052055;28;20169;-76
2022/12/18 00:05:01;;;;;;;0.00;0.00;;;3.30;99.90;;;;;;5053898;28;20343;-76
2022/12/18 00:07:26;;;;;;;0.10;0.10;;;3.20;99.90;;;;;;5058815;28;20063;-77
2022/12/18 00:09:52;;;;;;;0.10;0.10;;;3.20;99.90;;;;;;5058249;28;20116;-76
2022/12/18 00:12:18;;;;;;;4.03;3.80;;;3.20;99.90;;;;;;5044078;28;20021;-75
2022/12/18 00:14:43;;;;;;;0.63;0.63;;;3.20;99.90;;;;;;5044482;28;20036;-75
2022/12/18 00:17:09;;;;;;;0.00;0.00;;;3.20;99.90;;;;;;5044749;28;20072;-75
2022/12/18 00:19:39;;;;;;;0.00;0.00;;;3.20;99.90;;;;;;5063023;28;20071;-76
2022/12/18 00:22:06;;;;;;;0.20;0.20;;;;;;;;;;5047971;28;20021;-75
2022/12/18 00:24:38;;;;;;;0.15;0.15;;;3.20;99.90;;;;;;5062710;28;20033;-76
2022/12/18 00:27:06;;;;;;;0.10;0.10;;;3.10;99.90;;;;;;5063792;28;20041;-75
2022/12/18 00:29:35;;;;;;;0.15;0.15;;;2.90;99.90;;;;;;5049002;28;20542;-75
2022/12/18 00:32:02;;;;;;;0.00;0.00;;;3.10;99.90;;;;;;5043108;28;20044;-76
2022/12/18 00:34:30;;;;;;;0.10;0.10;;;3.10;99.90;;;;;;5045077;28;20021;-76
2022/12/18 00:36:56;;;;;;;0.00;0.00;;;2.90;99.90;;;;;;5058553;28;20029;-76
2022/12/18 00:39:22;;;;;;;0.10;0.10;;;3.10;99.90;;;;;;5058145;28;20036;-76
2022/12/18 00:44:32;;;;;;;;;;;3.20;99.90;;;;;;5059789;28;20510;-75
2022/12/18 00:46:58;;;;;;;0.22;0.22;;;3.20;99.90;;;;;;5062748;28;20131;-77
2022/12/18 00:49:24;;;;;;;0.10;0.10;;;3.20;99.90;;;;;;5062997;28;20028;-75
2022/12/18 00:51:49;;;;;;;0.10;0.10;;;3.10;99.90;;;;;;5067003;28;20025;-76
2022/12/18 00:54:16;;;;;;;0.10;0.10;;;3.10;99.90;;;;;;5064592;28;20021;-76
2022/12/18 00:56:42;;;;;;;0.10;0.10;;;3.00;99.90;;;;;;5046837;28;20033;-76
2022/12/18 00:59:07;;;;;;;2.38;2.28;;;3.00;99.90;;;;;;5064265;28;20553;-76
2022/12/18 01:01:34;;;;;;;3.55;3.40;;;3.00;99.90;;;;;;5052873;28;20486;-76
2022/12/18 01:04:15;;;;;;;0.10;0.10;;;3.00;99.90;;;;;;5054079;28;20032;-76
2022/12/18 01:06:45;;;;;;;0.03;0.03;;;2.90;99.90;;;;;;5052325;28;20170;-76
2022/12/18 01:09:10;;;;;;;0.05;0.05;;;3.40;99.90;;;;;;5034760;28;20036;-76
2022/12/18 01:11:36;;;;;;;0.22;0.22;;;2.90;99.90;;;;;;5054531;28;20155;-76
2022/12/18 01:14:04;;;;;;;0.00;0.00;;;2.90;99.90;;;;;;5052856;28;20033;-76
2022/12/18 01:16:30;;;;;;;0.73;0.70;;;2.90;99.90;;;;;;5051655;28;20017;-76
2022/12/18 01:19:09;;;;;;;0.03;0.03;;;2.90;99.90;;;;;;5055223;28;20029;-76
2022/12/18 01:21:38;;;;;;;0.00;0.00;;;2.90;99.90;;;;;;5061144;28;20021;-76
2022/12/18 01:24:04;;;;;;;0.10;0.10;;;2.90;99.90;;;;;;5051597;28;20571;-76
2022/12/18 01:26:30;;;;;;;0.03;0.03;;;2.90;99.90;;;;;;5051759;28;20295;-76
2022/12/18 01:28:57;;;;;;;0.10;0.10;;;3.00;99.90;;;;;;5035415;28;20052;-76
2022/12/18 01:31:28;;;;;;;0.00;0.00;;;2.90;99.90;;;;;;5033188;28;20030;-76
2022/12/18 01:33:56;;;;;;;0.10;0.10;;;2.90;99.90;;;;;;5052281;28;20506;-76
2022/12/18 01:36:28;;;;;;;1.02;1.02;;;2.80;99.90;;;;;;5061736;28;20017;-75
2022/12/18 01:38:56;;;;;;;0.00;0.00;;;2.80;99.90;;;;;;5060823;28;20021;-76
2022/12/18 01:41:25;;;;;;;0.10;0.10;;;2.80;99.90;;;;;;5055698;28;20039;-76
2022/12/18 01:43:57;;;;;;;0.00;0.00;;;2.80;99.90;;;;;;5057933;28;20027;-76
2022/12/18 01:46:27;;;;;;;0.10;0.10;;;2.90;99.90;;;;;;5060318;28;20039;-76
2022/12/18 01:48:56;;;;;;;0.00;0.00;;;2.90;99.90;;;;;;5026649;28;20462;-76
2022/12/18 01:51:22;;;;;;;0.10;0.10;;;2.90;99.90;;;;;;5061542;28;20223;-76
2022/12/18 01:53:49;;;;;;;0.10;0.10;;;2.80;99.90;;;;;;5061227;28;20029;-76
2022/12/18 01:56:20;;;;;;;0.10;0.10;;;2.80;99.90;;;;;;5057208;28;20044;-76
2022/12/18 01:59:03;;;;;;;0.08;0.08;;;2.80;99.90;;;;;;5020956;28;20475;-75
2022/12/18 02:01:30;;;;;;;0.05;0.05;;;2.80;99.90;;;;;;5057375;28;20072;-76
2022/12/18 02:04:19;;;;;;;0.10;0.10;;;2.80;99.90;;;;;;5050419;28;20495;-75
2022/12/18 02:06:52;;;;;;;0.10;0.10;;;2.60;99.90;;;;;;5049981;28;20068;-76
2022/12/18 02:09:27;;;;;;;1.55;1.55;;;2.60;99.90;;;;;;5053435;28;20535;-76
2022/12/18 02:12:20;;;;;;;0.10;0.10;;;2.70;99.90;;;;;;5056838;28;20262;-76
2022/12/18 02:14:57;;;;;;;0.80;0.80;;;2.70;99.90;;;;;;5054996;28;20021;-76
2022/12/18 02:18:03;;;;;;;0.10;0.10;;;2.60;99.90;;;;;;5055569;28;20085;-76
2022/12/18 02:20:48;;;;;;;0.10;0.10;;;2.60;99.90;;;;;;4974643;28;20102;-76
2022/12/18 02:23:51;;;;;;;4.85;4.68;;;2.60;99.90;;;;;;4957894;28;20023;-75
2022/12/18 02:26:29;;;;;;;0.10;0.10;;;2.60;99.90;;;;;;4969570;28;20035;-76
2022/12/18 02:29:12;;;;;;;0.10;0.10;;;2.60;99.90;;;;;;4966875;28;20078;-76
2022/12/18 02:31:51;;;;;;;0.10;0.10;;;2.60;99.90;;;;;;4946503;28;20230;-75
2022/12/18 02:34:18;;;;;;;0.10;0.10;;;2.60;99.90;;;;;;4967863;28;20034;-76
2022/12/18 02:36:46;;;;;;;0.10;0.10;;;2.50;99.90;;;;;;4967053;28;20027;-76
2022/12/18 02:39:15;;;;;;;0.10;0.10;;;2.40;99.90;;;;;;4966203;28;20062;-76
2022/12/18 02:41:41;;;;;;;0.10;0.10;;;2.40;99.90;;;;;;4950148;28;20545;-77
2022/12/18 02:44:11;;;;;;;0.10;0.10;;;2.30;99.90;;;;;;4965682;28;20078;-75
2022/12/18 02:46:40;;;;;;;0.50;0.50;;;2.40;99.90;;;;;;4967708;28;20384;-75
2022/12/18 02:49:51;;;;;;;0.10;0.10;;;2.40;99.90;;;;;;4966857;28;20110;-76
2022/12/18 02:52:53;;;;;;;0.10;0.10;;;2.20;99.90;;;;;;4981025;28;20589;-75
2022/12/18 02:55:57;;;;;;;0.10;0.10;;;2.20;99.90;;;;;;4947138;29;20069;-75
2022/12/18 02:58:58;;;;;;;0.10;0.10;;;2.20;99.90;;;;;;4925959;29;20246;-75
2022/12/18 03:01:50;;;;;;;3.13;3.03;;;2.30;99.90;;;;;;4871456;29;20097;-76
2022/12/18 03:04:45;;;;;;;0.10;0.10;;;2.40;99.90;;;;;;4871985;29;20041;-75
2022/12/18 03:07:18;;;;;;;1.05;1.05;;;2.50;99.90;;;;;;4871424;29;20059;-75
2022/12/18 03:09:49;;;;;;;0.00;0.00;;;2.50;99.90;;;;;;4872784;29;20124;-75
2022/12/18 03:12:40;;;;;;;0.10;0.10;;;2.50;99.90;;;;;;4874670;29;20551;-74
2022/12/18 03:15:40;;;;;;;2.20;2.13;;;2.50;99.90;;;;;;4875732;29;20036;-75
2022/12/18 03:18:15;;;;;;;0.00;0.00;;;2.20;99.90;;;;;;4824067;29;20038;-76
2022/12/18 03:20:46;;;;;;;0.10;0.10;;;2.50;99.90;;;;;;4825307;29;20038;-76
2022/12/18 03:23:17;;;;;;;0.77;0.77;;;2.60;99.90;;;;;;4825297;29;20042;-75
2022/12/18 03:25:46;;;;;;;0.03;0.03;;;2.50;99.90;;;;;;4828049;29;20098;-75
2022/12/18 03:28:23;;;;;;;0.05;0.05;;;2.50;99.90;;;;;;4827804;29;20071;-75
2022/12/18 03:30:55;;;;;;;0.60;0.60;;;2.50;99.90;;;;;;4824911;29;20038;-75
2022/12/18 03:33:34;;;;;;;0.10;0.10;;;2.50;99.90;;;;;;4843683;29;20029;-76
2022/12/18 03:36:05;;;;;;;0.10;0.10;;;2.50;99.90;;;;;;4907466;29;20095;-75
2022/12/18 03:38:35;;;;;;;0.05;0.05;;;2.50;99.90;;;;;;4929992;29;20031;-76
2022/12/18 03:41:06;;;;;;;0.10;0.10;;;2.60;99.90;;;;;;4911804;29;20039;-75
2022/12/18 03:44:02;;;;;;;0.10;0.10;;;2.50;99.90;;;;;;4937710;29;20142;-76
2022/12/18 03:46:56;;;;;;;5.15;4.95;;;2.50;99.90;;;;;;4937923;29;20115;-76
2022/12/18 03:49:45;;;;;;;0.10;0.10;;;2.60;99.90;;;;;;4930721;29;20098;-75
2022/12/18 03:52:23;;;;;;;1.40;1.35;;;2.60;99.90;;;;;;4933294;29;20112;-76
2022/12/18 03:54:53;;;;;;;5.30;5.05;;;2.70;99.90;;;;;;5032333;28;20040;-75
2022/12/18 03:57:32;;;;;;;0.10;0.10;;;2.70;99.90;;;;;;5034742;28;20038;-76
2022/12/18 04:00:12;;;;;;;6.50;6.22;;;2.70;99.90;;;;;;5016466;28;20026;-75
2022/12/18 04:02:43;;;;;;;0.10;0.10;;;2.60;99.90;;;;;;5033285;28;20243;-75
2022/12/18 04:05:11;;;;;;;0.10;0.10;;;2.70;99.90;;;;;;5032701;28;20085;-76
2022/12/18 04:07:39;;;;;;;0.00;0.00;;;2.70;99.90;;;;;;5036028;28;20038;-76
2022/12/18 04:10:07;;;;;;;0.10;0.10;;;2.70;99.90;;;;;;5033385;28;20386;-75
2022/12/18 04:12:33;;;;;;;0.10;0.10;;;2.70;99.90;;;;;;5034154;28;20056;-75
2022/12/18 04:15:02;;;;;;;0.10;0.10;;;2.60;99.90;;;;;;5033645;28;20080;-75
2022/12/18 04:17:28;;;;;;;0.08;0.08;;;2.70;99.90;;;;;;5018126;28;20068;-76
2022/12/18 04:19:55;;;;;;;0.10;0.10;;;2.70;99.90;;;;;;5016302;28;20029;-75
2022/12/18 04:22:21;;;;;;;0.10;0.10;;;2.70;99.90;;;;;;5034027;28;20125;-75
2022/12/18 04:24:51;;;;;;;0.10;0.10;;;2.70;99.90;;;;;;5035710;28;20037;-74
2022/12/18 04:27:18;;;;;;;0.10;0.10;;;2.70;99.90;;;;;;5044113;28;20107;-76
2022/12/18 04:29:43;;;;;;;0.10;0.10;;;2.60;99.90;;;;;;5056108;28;20025;-75
2022/12/18 04:32:10;;;;;;;0.17;0.17;;;2.60;99.90;;;;;;5058232;28;20059;-76
2022/12/18 04:34:36;;;;;;;0.10;0.10;;;2.60;99.90;;;;;;5053701;28;20066;-75
2022/12/18 04:37:04;;;;;;;0.00;0.00;;;1.80;99.90;;;;;;5054898;28;20028;-75
2022/12/18 04:39:30;;;;;;;0.10;0.10;;;3.00;99.90;;;;;;5054836;28;20025;-75
2022/12/18 04:41:55;;;;;;;0.10;0.10;;;2.40;99.90;;;;;;5055609;28;20021;-75
2022/12/18 04:44:21;;;;;;;0.10;0.10;;;2.40;99.90;;;;;;5058220;28;20552;-75
2022/12/18 04:46:48;;;;;;;3.95;3.75;;;2.40;99.90;;;;;;5055576;28;20025;-75
2022/12/18 04:49:14;;;;;;;0.00;0.00;;;2.40;99.90;;;;;;5058616;28;20040;-76
2022/12/18 04:51:41;;;;;;;0.10;0.10;;;2.40;99.90;;;;;;5059572;28;20100;-75
2022/12/18 04:54:06;;;;;;;0.05;0.05;;;2.40;99.90;;;;;;5061604;28;20052;-75
2022/12/18 04:56:38;;;;;;;0.77;0.77;;;2.40;99.90;;;;;;5062669;28;20028;-76
2022/12/18 04:59:04;;;;;;;0.00;0.00;;;2.50;99.90;;;;;;5063604;28;20018;-76
2022/12/18 05:01:30;;;;;;;0.10;0.10;;;2.40;99.90;;;;;;5062337;28;20468;-76
2022/12/18 05:03:56;;;;;;;0.10;0.10;;;2.40;99.90;;;;;;5062834;28;20037;-76
2022/12/18 05:06:21;;;;;;;3.60;3.40;;;2.40;99.90;;;;;;5049060;28;20029;-76
2022/12/18 05:08:50;;;;;;;0.10;0.10;;;2.40;99.90;;;;;;5062958;28;20040;-75
2022/12/18 05:11:16;;;;;;;0.10;0.10;;;2.40;99.90;;;;;;5054102;28;20078;-75
2022/12/18 05:13:43;;;;;;;0.10;0.10;;;2.40;99.90;;;;;;5035687;28;20037;-75
2022/12/18 05:16:09;;;;;;;0.20;0.20;;;2.40;99.90;;;;;;5051156;28;20013;-76
2022/12/18 05:18:35;;;;;;;0.10;0.10;;;2.50;99.90;;;;;;5036006;28;20021;-75
2022/12/18 05:21:01;;;;;;;0.10;0.10;;;2.60;99.90;;;;;;5051505;28;20053;-75
2022/12/18 05:23:31;;;;;;;0.10;0.10;;;2.60;99.90;;;;;;5053843;28;20021;-75
2022/12/18 05:26:03;;;;;;;0.00;0.00;;;2.60;99.90;;;;;;5049844;28;20020;-75
2022/12/18 05:28:32;;;;;;;0.10;0.10;;;2.70;99.90;;;;;;5049222;28;20095;-76
2022/12/18 05:31:00;;;;;;;0.00;0.00;;;2.70;99.90;;;;;;5052154;28;20472;-75
2022/12/18 05:33:34;;;;;;;0.10;0.10;;;2.70;99.90;;;;;;5047791;28;20491;-75
2022/12/18 05:36:03;;;;;;;0.00;0.00;;;2.70;99.90;;;;;;5031584;28;20086;-75
2022/12/18 05:38:32;;;;;;;0.10;0.10;;;2.80;99.90;;;;;;5048015;28;20021;-76
2022/12/18 05:40:58;;;;;;;0.10;0.10;;;2.70;99.90;;;;;;5049536;28;20487;-77
2022/12/18 05:43:28;;;;;;;0.10;0.10;;;2.70;99.90;;;;;;5047286;28;20260;-76
2022/12/18 05:45:55;;;;;;;0.00;0.00;;;2.50;99.90;;;;;;5050376;28;20017;-75
2022/12/18 05:48:21;;;;;;;0.80;0.80;;;2.50;99.90;;;;;;5046752;28;20342;-76
2022/12/18 05:50:49;;;;;;;0.05;0.05;;;2.40;99.90;;;;;;5055043;28;20059;-76
2022/12/18 05:53:17;;;;;;;0.10;0.10;;;2.50;99.90;;;;;;5050967;28;20275;-76
2022/12/18 05:55:43;;;;;;;0.10;0.10;;;2.50;99.90;;;;;;5056330;28;20021;-75
2022/12/18 05:58:17;;;;;;;0.20;0.20;;;1.00;99.90;;;;;;5056639;28;20033;-76
2022/12/18 06:00:45;;;;;;;0.10;0.10;;;2.60;99.90;;;;;;5052012;28;20238;-76
2022/12/18 06:03:13;;;;;;;0.00;0.00;;;2.60;99.90;;;;;;5032901;28;20024;-75
2022/12/18 06:05:41;;;;;;;0.10;0.10;;;2.60;99.90;;;;;;5053284;28;20032;-75
2022/12/18 06:08:08;;;;;;;0.10;0.10;;;2.70;99.90;;;;;;5052131;28;20432;-75
2022/12/18 06:10:34;;;;;;;5.18;4.85;;;2.70;99.90;;;;;;5050872;28;20028;-76
2022/12/18 06:13:00;;;;;;;0.10;0.10;;;2.70;99.90;;;;;;5048580;28;20017;-76
2022/12/18 06:15:29;;;;;;;7.38;5.57;;;2.70;99.90;;;;;;5034152;28;20083;-75
2022/12/18 06:17:55;;;;;;;0.10;0.10;;;2.70;99.90;;;;;;5037362;28;20582;-76
2022/12/18 06:20:21;;;;;;;0.10;0.10;;;2.70;99.90;;;;;;5052308;28;20179;-76
2022/12/18 06:22:57;;;;;;;0.10;0.10;;;2.70;99.90;;;;;;5037413;28;20487;-75
2022/12/18 06:25:28;;;;;;;0.10;0.10;;;3.20;99.90;;;;;;5039340;28;20036;-77
2022/12/18 06:27:55;;;;;;;0.00;0.00;;;2.80;99.90;;;;;;5061086;28;20116;-76
2022/12/18 06:30:21;;;;;;;0.00;0.00;;;3.60;99.90;;;;;;5059016;28;20037;-76
2022/12/18 06:32:49;;;;;;;0.10;0.10;;;2.80;99.90;;;;;;5060594;28;20021;-76
2022/12/18 06:35:18;;;;;;;0.00;0.00;;;2.80;99.90;;;;;;5064478;28;20029;-76
2022/12/18 06:37:43;;;;;;;0.00;0.00;;;2.80;99.90;;;;;;5060522;28;20028;-76
2022/12/18 06:40:09;;;;;;;0.10;0.10;;;2.80;99.90;;;;;;5057551;28;20036;-75
2022/12/18 06:42:35;;;;;;;3.95;3.83;;;2.80;99.90;;;;;;5055260;28;20048;-76
2022/12/18 06:45:01;;;;;;;1.17;1.17;;;2.80;99.90;;;;;;5053095;28;20037;-76
2022/12/18 06:47:28;;;;;;;0.05;0.05;;;2.80;99.90;;;;;;5052658;28;20101;-75
2022/12/18 06:49:55;;;;;;;0.00;0.00;;;2.80;99.90;;;;;;5036346;28;20465;-77
2022/12/18 06:52:21;;;;;;;0.10;0.10;;;2.80;99.90;;;;;;5052772;28;20056;-75
2022/12/18 06:54:46;;;;;;;0.00;0.00;;;2.80;99.90;;;;;;5030436;28;20482;-75
2022/12/18 06:57:13;;;;;;;0.45;0.45;;;0.20;99.90;;;;;;5047636;28;20430;-76
2022/12/18 06:59:39;;;;;;;0.10;0.10;;;2.90;99.90;;;;;;5048410;28;20241;-76
2022/12/18 07:02:07;;;;;;;0.10;0.10;;;2.90;99.90;;;;;;5047759;28;20033;-76
2022/12/18 07:04:32;;;;;;;0.10;0.10;;;2.90;99.90;;;;;;5033573;28;20025;-76
2022/12/18 07:06:58;;;;;;;0.20;0.20;;;3.00;99.90;;;;;;5033775;28;20079;-75
2022/12/18 07:09:24;;;;;;;1.17;1.17;;;3.20;99.90;;;;;;5050591;28;20039;-76
2022/12/18 07:11:50;;;;;;;6.07;5.72;;;;;;;;;;5035299;28;20345;-76
2022/12/18 07:14:19;;;;;;;0.10;0.10;;;3.00;99.90;;;;;;5055843;28;20024;-76
2022/12/18 07:16:45;;;;;;;0.10;0.10;;;3.00;99.90;;;;;;5030569;28;20069;-75
2022/12/18 07:19:11;;;;;;;0.10;0.10;;;3.00;99.90;;;;;;5050609;28;20024;-76
2022/12/18 07:21:37;;;;;;;0.10;0.10;;;3.00;99.90;;;;;;5049227;28;20225;-76
2022/12/18 07:24:04;;;;;;;0.10;0.10;;;3.00;99.90;;;;;;5031517;28;20033;-76
2022/12/18 07:26:30;;;;;;;0.10;0.10;;;3.00;99.90;;;;;;5051125;28;20233;-75
2022/12/18 07:28:58;;;;;;;0.00;0.00;;;3.00;99.90;;;;;;5052101;28;20052;-75
2022/12/18 07:31:27;;;;;;;0.00;0.00;;;2.90;99.90;;;;;;5051977;28;20053;-76
2022/12/18 07:33:55;;;;;;;0.10;0.10;;;2.90;99.90;;;;;;5057944;28;20112;-76
2022/12/18 07:36:26;;;;;;;0.05;0.05;;;2.80;99.90;;;;;;5058837;28;20671;-76
2022/12/18 07:38:52;;;;;;;0.10;0.10;;;2.80;99.90;;;;;;5057273;28;20033;-76
2022/12/18 07:41:22;;;;;;;3.63;3.53;;;5.50;99.90;;;;;;5056285;28;20033;-75
2022/12/18 07:43:59;;;;;;;2.30;2.10;;;2.90;99.90;;;;;;5057620;28;20023;-75
2022/12/18 07:46:35;;;;;;;7.45;7.10;;;2.70;99.90;;;;;;5057083;28;20021;-75
2022/12/18 07:49:02;;;;;;;0.10;0.10;;;2.80;99.90;;;;;;5055259;28;20037;-77
2022/12/18 07:51:29;;;;;;;0.52;0.52;;;2.30;99.90;;;;;;5053492;28;20569;-77
2022/12/18 07:53:55;;;;;;;0.10;0.10;;;;;;;;;;5037701;28;20029;-77
2022/12/18 07:56:28;;;;;;;0.10;0.10;;;2.90;99.90;;;;;;5050945;28;20025;-76
2022/12/18 07:58:59;;;;;;;0.00;0.00;;;2.80;99.90;;;;;;5043229;28;20006;-75
2022/12/18 08:01:27;;;;;;;0.00;0.00;;;2.70;99.90;;;;;;5068485;28;20017;-76
2022/12/18 08:03:54;;;;;;;0.10;0.10;;;2.80;99.90;;;;;;5054942;28;20041;-76
2022/12/18 08:06:29;;;;;;;0.00;0.00;;;2.80;99.90;;;;;;5063492;28;20070;-76
2022/12/18 08:09:00;;;;;;;0.10;0.10;;;2.90;99.90;;;;;;5053931;28;20029;-79
2022/12/18 08:11:28;;;;;;;0.10;0.10;;;2.90;99.90;;;;;;5055370;28;20028;-75
2022/12/18 08:13:58;;;;;;;0.00;0.00;;;2.90;99.90;;;;;;5052312;28;20024;-76
2022/12/18 08:16:24;;;;;;;0.10;0.10;;;3.00;99.90;;;;;;5058607;28;20024;-75
2022/12/18 08:18:54;;;;;;;0.10;0.10;;;3.10;99.90;;;;;;5056694;28;20025;-76
2022/12/18 08:21:26;;;;;;;0.10;0.10;;;3.10;99.90;;;;;;5035089;28;20027;-76
2022/12/18 08:23:53;;;;;;;0.00;0.00;;;3.20;99.90;;;;;;5062326;28;20013;-75
2022/12/18 08:26:20;;;;;;;0.08;0.08;;;3.20;99.90;;;;;;5052819;28;20613;-75
2022/12/18 08:28:46;;;;;;;0.10;0.10;;;3.30;99.90;;;;;;5066611;28;20581;-76
2022/12/18 08:31:12;;;;;;;0.10;0.10;;;3.30;99.90;;;;;;5069291;28;20047;-77
2022/12/18 08:33:40;;;;;;;0.10;0.10;;;3.10;99.90;;;;;;5048501;28;20036;-76
2022/12/18 08:36:09;;;;;;;0.03;0.03;;;3.10;99.90;;;;;;5072405;28;20169;-76
2022/12/18 08:38:39;;;;;;;0.65;0.65;;;3.10;99.90;;;;;;5052396;28;20070;-76
2022/12/18 08:41:08;;;;;;;0.08;0.08;;;3.10;99.90;;;;;;5076975;28;20051;-77
2022/12/18 08:46:22;;;;;;;0.00;0.00;;;3.20;99.90;;;;;;5065229;28;20693;-76
2022/12/18 08:48:49;;;;;;;0.30;0.30;;;3.20;99.90;;;;;;5080550;28;20025;-76
2022/12/18 08:51:19;;;;;;;0.00;0.00;;;3.20;99.90;;;;;;5085458;28;20055;-76
2022/12/18 08:53:45;;;;;;;0.00;0.00;;;3.30;99.90;;;;;;5072999;28;20021;-76
2022/12/18 08:56:12;;;;;;;0.10;0.10;;;3.40;99.90;;;;;;5071513;28;20020;-75
2022/12/18 08:58:40;;;;;;;0.03;0.03;;;3.40;99.90;;;;;;5074710;28;20039;-76
2022/12/18 09:01:11;;;;;;;0.00;0.00;;;3.40;99.90;;;;;;5074743;28;20020;-75
2022/12/18 09:03:37;;;;;;;0.10;0.10;;;3.40;99.90;;;;;;5081233;28;20024;-75
2022/12/18 09:06:03;;;;;;;0.10;0.10;;;3.40;99.90;;;;;;5084630;28;20033;-76
2022/12/18 09:08:34;;;;;;;0.00;0.00;;;3.40;99.90;;;;;;5088207;28;20028;-78
2022/12/18 09:11:00;;;;;;;1.05;1.00;;;3.50;99.90;;;;;;5075371;28;20047;-76
2022/12/18 09:13:28;;;;;;;0.10;0.10;;;3.70;99.90;;;;;;5077414;28;20483;-76
2022/12/18 09:15:57;;;;;;;0.08;0.08;;;3.90;99.90;;;;;;5078527;28;20036;-76
2022/12/18 09:18:24;;;;;;;0.25;0.25;;;3.70;99.90;;;;;;5074873;28;20169;-76
2022/12/18 09:20:53;;;;;;;0.10;0.10;;;3.70;99.90;;;;;;5076468;28;20020;-75
2022/12/18 09:23:20;;;;;;;0.05;0.05;;;3.80;99.90;;;;;;5060040;28;20055;-76
2022/12/18 09:25:49;;;;;;;0.20;0.20;;;3.80;99.90;;;;;;5078750;28;20048;-75
2022/12/18 09:28:17;;;;;;;0.10;0.10;;;3.80;99.90;;;;;;5073742;28;20076;-76
2022/12/18 09:30:48;;;;;;;0.10;0.10;;;3.60;99.90;;;;;;5071288;28;20118;-76
2022/12/18 09:33:19;;;;;;;0.10;0.10;;;3.80;99.90;;;;;;5090827;28;20032;-76
2022/12/18 09:35:47;;;;;;;0.10;0.10;;;3.80;99.90;;;;;;5081854;28;20008;-77
2022/12/18 09:38:22;;;;;;;0.10;0.10;;;3.80;99.90;;;;;;5064916;28;20055;-83
2022/12/18 09:40:56;;;;;;;0.10;0.10;;;3.70;99.90;;;;;;5073362;28;20028;-76
2022/12/18 09:43:33;;;;;;;19.45;18.10;;;3.80;99.90;;;;;;5056416;28;20033;-76
2022/12/18 09:46:44;;;;;;;0.20;0.20;;;3.80;99.90;;;;;;5086063;28;20020;-76
2022/12/18 09:49:27;;;;;;;0.10;0.10;;;3.80;99.90;;;;;;5002331;28;20037;-76
2022/12/18 09:52:43;;;;;;;0.00;0.00;;;4.10;99.90;;;;;;5013902;28;20033;-76
2022/12/18 09:55:39;;;;;;;0.45;0.45;;;3.80;99.90;;;;;;5004372;28;20046;-76
2022/12/18 09:58:36;;;;;;;0.10;0.10;;;3.80;99.90;;;;;;4993829;28;20071;-76
2022/12/18 10:01:09;;;;;;;0.10;0.10;;;3.80;99.90;;;;;;4989117;28;20026;-76
2022/12/18 10:03:35;;;;;;;0.10;0.10;;;3.90;99.90;;;;;;4994221;28;20058;-77
2022/12/18 10:06:39;;;;;;;0.30;0.30;;;3.90;99.90;;;;;;4967101;28;20044;-76
2022/12/18 10:09:14;;;;;;;0.08;0.08;;;3.90;99.90;;;;;;4987331;28;20042;-76
2022/12/18 10:12:19;;;;;;;2.33;2.17;;;3.90;99.90;;;;;;4992843;28;20765;-76
2022/12/18 10:14:53;;;;;;;0.10;0.10;;;4.00;99.90;;;;;;4990665;28;20022;-77
2022/12/18 10:17:47;;;;;;;0.10;0.10;;;3.90;99.90;;;;;;4995203;28;20027;-76
2022/12/18 10:20:22;;;;;;;0.10;0.10;;;3.90;99.90;;;;;;4991167;28;20022;-77
2022/12/18 10:22:57;;;;;;;3.30;3.20;;;4.00;99.90;;;;;;4986125;28;20030;-76
2022/12/18 10:25:28;;;;;;;0.10;0.10;;;4.00;99.90;;;;;;4983720;28;20046;-76
2022/12/18 10:28:07;;;;;;;0.10;0.10;;;4.10;99.90;;;;;;5036331;28;20082;-76
2022/12/18 10:30:36;;;;;;;0.10;0.10;;;4.20;99.90;;;;;;5078478;28;20028;-76
2022/12/18 10:33:16;;;;;;;0.10;0.10;;;4.20;99.90;;;;;;5074989;28;20694;-76
2022/12/18 10:35:44;;;;;;;0.10;0.10;;;4.20;99.90;;;;;;5072553;28;20514;-77
2022/12/18 10:38:38;;;;;;;0.52;0.52;;;4.30;99.90;;;;;;5053249;28;20052;-77
2022/12/18 10:41:11;;;;;;;0.75;0.75;;;4.30;99.90;;;;;;4985445;28;20048;-76
2022/12/18 10:43:40;;;;;;;0.75;0.75;;;4.30;99.90;;;;;;4989570;28;20093;-75
2022/12/18 10:46:16;;;;;;;0.10;0.10;;;4.30;99.90;;;;;;4972432;28;20069;-76
2022/12/18 10:48:46;;;;;;;0.10;0.10;;;4.30;99.90;;;;;;4989804;28;20057;-74
2022/12/18 10:51:37;;;;;;;0.10;0.10;;;4.20;99.90;;;;;;4987721;28;20065;-75
2022/12/18 10:54:24;;;;;;;0.10;0.10;;;4.20;99.90;;;;;;4990966;28;20027;-78
2022/12/18 10:56:50;;;;;;;0.10;0.10;;;;;;;;;;4990944;28;20835;-76
2022/12/18 10:59:18;;;;;;;0.00;0.00;;;4.20;99.90;;;;;;4991348;28;20065;-76
2022/12/18 11:02:00;;;;;;;0.10;0.10;;;4.20;99.90;;;;;;4991729;28;20026;-76
2022/12/18 11:04:35;;;;;;;0.10;0.10;;;4.00;99.90;;;;;;4993805;28;20212;-77
2022/12/18 11:07:20;;;;;;;1.45;1.42;;;4.40;99.90;;;;;;4998188;28;20118;-76
2022/12/18 11:10:02;;;;;;;0.10;0.10;;;4.40;99.90;;;;;;4992341;28;20026;-76
2022/12/18 11:13:09;;;;;;;1.77;1.00;;;4.50;99.90;;;;;;4999977;28;20031;-75
2022/12/18 11:15:38;;;;;;;0.10;0.10;;;4.40;99.90;;;;;;5000621;28;20032;-76
2022/12/18 11:18:15;;;;;;;3.15;2.92;;;4.50;99.90;;;;;;5043779;28;20067;-76
2022/12/18 11:20:42;;;;;;;0.30;0.30;;;4.50;99.90;;;;;;5072425;28;20024;-76
2022/12/18 11:23:13;;;;;;;0.70;0.70;;;3.00;99.90;;;;;;5077543;28;20024;-76
2022/12/18 11:25:53;;;;;;;0.10;0.10;;;4.60;99.90;;;;;;5063515;28;20099;-76
2022/12/18 11:28:32;;;;;;;0.90;0.90;;;4.70;99.90;;;;;;5080228;28;20750;-76
2022/12/18 11:31:28;;;;;;;0.10;0.10;;;4.60;99.90;;;;;;5069325;28;20043;-76
2022/12/18 11:34:21;;;;;;;0.00;0.00;;;4.50;99.90;;;;;;4972765;28;20045;-76
2022/12/18 11:36:50;;;;;;;0.00;0.00;;;4.60;99.90;;;;;;4986768;28;20093;-75
2022/12/18 11:39:36;;;;;;;0.10;0.10;;;4.70;99.90;;;;;;4989080;28;20035;-76
2022/12/18 11:42:30;;;;;;;0.10;0.10;;;4.70;99.90;;;;;;4985599;28;20050;-77
2022/12/18 11:45:03;;;;;;;0.10;0.10;;;4.80;99.90;;;;;;4986064;28;20113;-76
2022/12/18 11:47:53;;;;;;;0.10;0.10;;;4.70;99.90;;;;;;4981346;28;20034;-76
2022/12/18 11:50:27;;;;;;;0.10;0.10;;;4.70;99.90;;;;;;4989041;28;20066;-75
2022/12/18 11:52:54;;;;;;;0.47;0.47;;;4.50;99.90;;;;;;4995164;28;20135;-76
2022/12/18 11:55:45;;;;;;;0.10;0.10;;;5.10;99.90;;;;;;4988027;28;20061;-75
2022/12/18 11:58:29;;;;;;;0.10;0.10;;;4.70;99.90;;;;;;4991402;28;20157;-75
2022/12/18 12:01:21;;;;;;;;;;;4.60;99.90;;;;;;5004163;28;20023;-76
2022/12/18 12:04:08;;;;;;;0.10;0.10;;;4.80;99.90;;;;;;4999004;28;19901;-76
2022/12/18 12:07:11;;;;;;;0.08;0.08;;;4.80;99.90;;;;;;4983480;28;20023;-76
2022/12/18 12:10:10;;;;;;;2.05;1.95;;;4.70;99.90;;;;;;4996547;28;20026;-76
2022/12/18 12:12:50;;;;;;;2.35;2.25;;;4.70;99.90;;;;;;5093912;28;20063;-77
2022/12/18 12:15:37;;;;;;;0.10;0.10;;;4.70;99.90;;;;;;5075898;28;20627;-76
2022/12/18 12:18:39;;;;;;;0.10;0.10;;;4.40;99.90;;;;;;5071032;28;20012;-76
2022/12/18 12:21:33;;;;;;;0.10;0.10;;;4.60;99.90;;;;;;5073708;28;20088;-76
2022/12/18 12:24:12;;;;;;;0.65;0.65;;;4.70;99.90;;;;;;5065332;28;20016;-76
2022/12/18 12:27:04;;;;;;;1.55;1.45;;;4.70;99.90;;;;;;5061222;28;20047;-76
2022/12/18 12:29:49;;;;;;;13.93;13.38;;;3.20;99.90;;;;;;5076231;28;20032;-76
2022/12/18 12:32:26;;;;;;;0.10;0.10;;;4.70;99.90;;;;;;5071956;28;20027;-76
2022/12/18 12:35:22;;;;;;;0.40;0.40;;;4.70;99.90;;;;;;5077292;28;20025;-76
2022/12/18 12:38:17;;;;;;;0.10;0.10;;;4.60;99.90;;;;;;5077015;28;20028;-79
2022/12/18 12:43:12;;;;;;;0.10;0.10;;;4.70;99.90;;;;;;4988196;28;20073;-76
2022/12/18 12:43:58;;;;;;;0.10;0.10;;;4.70;99.90;;;;;;4996121;28;20030;-76
2022/12/18 12:46:28;;;;;;;0.10;0.10;;;4.00;99.90;;;;;;5003806;28;20493;-76
2022/12/18 12:48:59;;;;;;;0.10;0.10;;;4.50;99.90;;;;;;4996984;28;20049;-76
2022/12/18 12:51:40;;;;;;;0.10;0.10;;;4.70;99.90;;;;;;5000626;28;20042;-76
2022/12/18 12:54:17;;;;;;;;;;;4.70;99.90;;;;;;5009368;28;20014;-79
2022/12/18 12:57:23;;;;;;;0.10;0.10;;;4.80;99.90;;;;;;4994964;28;19906;-77
2022/12/18 13:00:04;;;;;;;3.13;3.03;;;4.70;99.90;;;;;;4990774;28;20089;-76
2022/12/18 13:02:56;;;;;;;0.10;0.10;;;4.80;99.90;;;;;;4994448;28;20078;-76
2022/12/18 13:05:51;;;;;;;0.00;0.00;;;4.80;99.90;;;;;;4981043;28;20022;-76
2022/12/18 13:08:29;;;;;;;0.20;0.20;;;4.80;99.90;;;;;;4992716;28;20035;-76
2022/12/18 13:12:55;;;;;;;0.10;0.10;;;4.80;99.90;;;;;;4988282;28;20026;-75
2022/12/18 13:13:57;;;;;;;0.10;0.10;;;4.90;99.90;;;;;;4987718;28;20248;-76
2022/12/18 13:16:25;;;;;;;0.00;0.00;;;4.80;99.90;;;;;;4991151;28;20677;-75
2022/12/18 13:19:01;;;;;;;0.40;0.40;;;4.80;99.90;;;;;;5066575;28;20059;-76
2022/12/18 13:21:33;;;;;;;0.10;0.10;;;4.80;99.90;;;;;;5066629;28;20024;-76
2022/12/18 13:24:22;;;;;;;0.20;0.20;;;4.80;99.90;;;;;;5069256;28;20513;-76
2022/12/18 13:26:48;;;;;;;1.27;1.27;;;4.60;99.90;;;;;;5072928;28;20040;-76
2022/12/18 13:29:42;;;;;;;3.35;3.25;;;4.60;99.90;;;;;;5070727;28;20098;-76
2022/12/18 13:32:28;;;;;;;0.10;0.10;;;4.50;99.90;;;;;;5072843;28;20017;-75
2022/12/18 13:35:27;;;;;;;0.10;0.10;;;2.10;99.90;;;;;;5069133;28;20224;-75
2022/12/18 13:37:59;;;;;;;0.00;0.00;;;4.50;99.90;;;;;;5007779;28;20043;-75